createdAt,value
2019-04-23T00:01:14.787Z,57.80
2019-04-23T00:02:40.791Z,57.90
2019-04-23T00:03:52.068Z,58.00
2019-04-23T00:04:52.807Z,58.50
2019-04-23T00:06:17.002Z,58.50
2019-04-23T00:07:15.808Z,58.80
2019-04-23T00:08:20.087Z,58.80
2019-04-23T00:10:30.348Z,58.90
2019-04-23T00:11:44.518Z,59.20
2019-04-23T00:12:58.385Z,59.40
2019-04-23T00:13:50.312Z,59.40
2019-04-23T00:15:04.493Z,59.40
2019-04-23T00:17:18.060Z,59.70
2019-04-23T00:18:28.172Z,59.80
2019-04-23T00:19:24.882Z,60.00
2019-04-23T00:20:25.729Z,59.90
2019-04-23T00:21:55.079Z,60.00
2019-04-23T00:23:11.100Z,60.50
2019-04-23T00:24:52.215Z,60.80
2019-04-23T00:26:03.961Z,60.70
2019-04-23T00:27:15.631Z,60.60
2019-04-23T00:29:18.558Z,61.50
2019-04-23T00:30:38.200Z,61.90
2019-04-23T00:33:46.157Z,62.70
2019-04-23T00:34:54.726Z,62.60
2019-04-23T00:35:59.706Z,62.20
2019-04-23T00:37:12.478Z,62.50
2019-04-23T00:38:16.713Z,62.70
2019-04-23T00:39:17.276Z,62.80
2019-04-23T00:40:25.835Z,62.90
2019-04-23T00:41:30.888Z,62.70
2019-04-23T00:42:38.415Z,62.90
2019-04-23T00:43:43.218Z,63.00
2019-04-23T00:45:48.692Z,63.00
2019-04-23T00:46:54.636Z,63.50
2019-04-23T00:48:09.271Z,63.50
2019-04-23T00:49:10.794Z,63.70
2019-04-23T00:50:41.360Z,63.60
2019-04-23T00:51:23.908Z,63.80
2019-04-23T00:53:35.708Z,64.60
2019-04-23T00:54:50.066Z,64.60
2019-04-23T00:55:47.687Z,64.70
2019-04-23T00:58:06.259Z,64.90
2019-04-23T00:59:05.405Z,65.00
2019-04-23T01:00:19.272Z,65.60
2019-04-23T01:01:19.897Z,65.40
2019-04-23T01:02:31.145Z,65.80
2019-04-23T01:03:26.782Z,65.90
2019-04-23T01:04:45.364Z,66.00
2019-04-23T01:05:41.008Z,66.20
2019-04-23T01:06:54.908Z,66.10
2019-04-23T01:07:58.219Z,66.50
2019-04-23T01:09:03.726Z,67.00
2019-04-23T01:10:25.621Z,67.50
2019-04-23T01:11:23.978Z,67.80
2019-04-23T01:12:38.408Z,67.60
2019-04-23T01:14:41.466Z,67.80
2019-04-23T01:15:54.256Z,67.50
2019-04-23T01:16:55.030Z,68.10
2019-04-23T01:18:18.675Z,68.40
2019-04-23T01:19:18.862Z,68.50
2019-04-23T01:20:40.637Z,69.40
2019-04-23T01:21:24.606Z,69.20
2019-04-23T01:22:31.574Z,69.40
2019-04-23T01:23:54.923Z,69.20
2019-04-23T01:25:09.779Z,69.30
2019-04-23T01:26:29.611Z,70.10
2019-04-23T01:28:00.746Z,70.10
2019-04-23T01:28:47.932Z,70.30
2019-04-23T01:29:58.540Z,70.40
2019-04-23T01:31:03.710Z,70.70
2019-04-23T01:32:08.565Z,71.40
2019-04-23T01:33:18.424Z,71.80
2019-04-23T01:34:28.018Z,71.40
2019-04-23T01:35:28.793Z,71.50
2019-04-23T01:36:44.685Z,71.80
2019-04-23T01:38:46.146Z,71.50
2019-04-23T01:39:52.832Z,71.30
2019-04-23T01:40:53.844Z,71.50
2019-04-23T01:42:04.112Z,71.60
2019-04-23T01:43:10.838Z,72.10
2019-04-23T01:44:14.344Z,72.10
2019-04-23T01:46:28.932Z,71.80
2019-04-23T01:47:39.032Z,72.20
2019-04-23T01:48:42.080Z,72.30
2019-04-23T01:49:56.465Z,71.90
2019-04-23T01:50:54.544Z,72.30
2019-04-23T01:52:01.672Z,72.10
2019-04-23T01:53:08.657Z,72.00
2019-04-23T01:54:09.523Z,72.00
2019-04-23T01:56:25.950Z,71.90
2019-04-23T01:57:30.649Z,71.50
2019-04-23T01:59:46.192Z,71.90
2019-04-23T02:00:47.506Z,72.20
2019-04-23T02:03:01.132Z,72.40
2019-04-23T02:04:11.281Z,71.70
2019-04-23T02:05:23.187Z,72.20
2019-04-23T02:06:20.520Z,72.40
2019-04-23T02:07:29.939Z,72.40
2019-04-23T02:08:28.017Z,72.50
2019-04-23T02:09:43.449Z,72.50
2019-04-23T02:10:51.336Z,72.70
2019-04-23T02:11:53.826Z,72.60
2019-04-23T02:13:03.169Z,72.70
2019-04-23T02:14:03.722Z,72.80
2019-04-23T02:15:14.053Z,72.80
2019-04-23T02:16:10.203Z,72.90
2019-04-23T02:17:24.926Z,73.00
2019-04-23T02:18:42.562Z,73.10
2019-04-23T02:19:42.365Z,73.20
2019-04-23T02:20:46.135Z,73.30
2019-04-23T02:22:18.099Z,73.40
2019-04-23T02:23:31.215Z,73.70
2019-04-23T02:24:41.286Z,73.80
2019-04-23T02:25:50.372Z,74.10
2019-04-23T02:27:05.184Z,74.20
2019-04-23T02:28:06.031Z,74.10
2019-04-23T02:29:14.140Z,74.00
2019-04-23T02:30:36.146Z,73.90
2019-04-23T02:32:31.960Z,73.80
2019-04-23T02:34:57.695Z,74.20
2019-04-23T02:36:55.013Z,74.30
2019-04-23T02:41:19.288Z,74.60
2019-04-23T02:43:01.666Z,75.00
2019-04-23T02:44:50.698Z,75.60
2019-04-23T02:45:54.583Z,75.50
2019-04-23T02:46:56.790Z,75.60
2019-04-23T02:48:01.828Z,75.70
2019-04-23T02:49:12.449Z,75.90
2019-04-23T02:51:10.855Z,76.30
2019-04-23T02:53:37.627Z,76.70
2019-04-23T02:57:50.363Z,76.80
2019-04-23T02:59:05.613Z,76.70
2019-04-23T03:03:44.115Z,76.90
2019-04-23T03:04:37.194Z,77.10
2019-04-23T03:07:49.575Z,77.10
2019-04-23T03:09:58.790Z,77.40
2019-04-23T03:12:20.124Z,77.10
2019-04-23T03:13:30.805Z,77.40
2019-04-23T03:14:26.775Z,77.60
2019-04-23T03:15:50.701Z,77.90
2019-04-23T03:18:42.087Z,77.50
2019-04-23T03:19:52.348Z,77.80
2019-04-23T03:21:24.067Z,78.20
2019-04-23T03:23:31.888Z,78.40
2019-04-23T03:24:55.469Z,78.60
2019-04-23T03:26:08.540Z,79.00
2019-04-23T03:28:25.269Z,79.30
2019-04-23T03:32:30.238Z,79.30
2019-04-23T03:34:56.403Z,79.50
2019-04-23T03:38:41.670Z,79.40
2019-04-23T03:39:50.437Z,79.50
2019-04-23T03:40:37.313Z,79.90
2019-04-23T03:41:50.762Z,79.90
2019-04-23T03:43:01.315Z,80.50
2019-04-23T03:43:51.475Z,80.60
2019-04-23T03:45:27.891Z,80.50
2019-04-23T03:48:41.620Z,80.40
2019-04-23T03:49:33.305Z,81.00
2019-04-23T03:50:35.845Z,80.20
2019-04-23T03:51:42.827Z,81.00
2019-04-23T03:54:05.030Z,80.00
2019-04-23T03:55:06.162Z,79.90
2019-04-23T03:56:18.900Z,80.10
2019-04-23T03:58:28.180Z,79.80
2019-04-23T04:01:34.745Z,80.80
2019-04-23T04:04:20.672Z,80.00
2019-04-23T04:05:14.418Z,79.70
2019-04-23T04:06:15.414Z,80.00
2019-04-23T04:07:18.558Z,79.70
2019-04-23T04:10:31.607Z,79.20
2019-04-23T04:11:25.773Z,79.00
2019-04-23T04:12:46.338Z,78.70
2019-04-23T04:13:50.820Z,78.70
2019-04-23T04:14:54.414Z,78.50
2019-04-23T04:16:01.299Z,78.20
2019-04-23T04:17:12.399Z,78.20
2019-04-23T04:19:25.170Z,78.20
2019-04-23T04:20:33.164Z,77.90
2019-04-23T04:22:47.109Z,78.00
2019-04-23T04:23:42.764Z,78.10
2019-04-23T04:26:02.247Z,77.50
2019-04-23T04:27:05.648Z,77.60
2019-04-23T04:29:10.830Z,77.30
2019-04-23T04:30:22.136Z,77.00
2019-04-23T04:31:30.986Z,76.80
2019-04-23T04:32:31.600Z,76.60
2019-04-23T04:33:49.015Z,76.60
2019-04-23T04:35:54.417Z,76.90
2019-04-23T04:38:16.511Z,77.20
2019-04-23T04:39:02.901Z,77.40
2019-04-23T04:40:23.586Z,77.30
2019-04-23T04:41:25.657Z,77.00
2019-04-23T04:44:42.692Z,76.80
2019-04-23T04:45:52.102Z,76.90
2019-04-23T04:46:49.993Z,76.80
2019-04-23T04:49:05.541Z,76.40
2019-04-23T04:50:19.252Z,76.20
2019-04-23T04:51:20.727Z,76.30
2019-04-23T04:52:34.250Z,76.20
2019-04-23T04:53:47.417Z,76.00
2019-04-23T04:54:22.743Z,76.10
2019-04-23T04:56:43.064Z,76.10
2019-04-23T04:57:56.686Z,76.00
2019-04-23T05:00:10.410Z,75.30
2019-04-23T05:03:25.971Z,74.00
2019-04-23T05:08:54.473Z,73.30
2019-04-23T05:11:07.776Z,72.50
2019-04-23T05:15:25.434Z,71.20
2019-04-23T05:16:34.581Z,70.80
2019-04-23T05:18:00.328Z,70.70
2019-04-23T05:19:03.552Z,70.50
2019-04-23T05:20:16.976Z,70.30
2019-04-23T05:21:16.056Z,70.10
2019-04-23T05:22:17.085Z,69.80
2019-04-23T05:24:33.276Z,69.20
2019-04-23T05:25:31.766Z,69.00
2019-04-23T05:26:38.319Z,68.70
2019-04-23T05:27:53.557Z,68.60
2019-04-23T05:30:02.833Z,68.20
2019-04-23T05:31:21.689Z,67.80
2019-04-23T05:32:23.730Z,67.70
2019-04-23T05:34:38.143Z,67.50
2019-04-23T05:36:52.034Z,66.30
2019-04-23T05:38:22.342Z,66.40
2019-04-23T05:39:08.313Z,66.00
2019-04-23T05:40:30.663Z,66.00
2019-04-23T05:42:37.910Z,65.50
2019-04-23T05:43:40.886Z,65.40
2019-04-23T05:45:49.650Z,65.10
2019-04-23T05:47:04.259Z,64.80
2019-04-23T05:48:13.252Z,64.40
2019-04-23T05:50:30.501Z,64.10
2019-04-23T05:52:31.295Z,64.10
2019-04-23T05:53:40.768Z,63.60
2019-04-23T05:54:46.495Z,63.40
2019-04-23T05:55:47.602Z,63.00
2019-04-23T05:56:53.921Z,62.70
2019-04-23T05:58:16.576Z,62.40
2019-04-23T05:59:06.675Z,62.20
2019-04-23T06:00:07.599Z,62.10
2019-04-23T06:02:35.297Z,61.50
2019-04-23T06:03:44.485Z,61.20
2019-04-23T06:04:43.146Z,60.90
2019-04-23T06:06:01.206Z,60.80
2019-04-23T06:08:03.430Z,59.90
2019-04-23T06:09:08.034Z,59.80
2019-04-23T06:10:14.999Z,59.50
2019-04-23T06:11:28.120Z,59.60
2019-04-23T06:12:26.673Z,59.20
2019-04-23T06:13:35.911Z,59.10
2019-04-23T06:14:47.464Z,59.00
2019-04-23T06:15:44.029Z,58.80
2019-04-23T06:18:02.001Z,58.80
2019-04-23T06:19:10.580Z,58.30
2019-04-23T06:20:24.969Z,58.10
2019-04-23T06:21:18.821Z,58.00
2019-04-23T06:22:28.925Z,57.90
2019-04-23T06:23:36.511Z,57.80
2019-04-23T06:24:39.802Z,57.30
2019-04-23T06:26:15.588Z,57.10
2019-04-23T06:27:58.088Z,57.00
2019-04-23T06:29:05.365Z,56.80
2019-04-23T06:30:03.978Z,56.60
2019-04-23T06:32:23.144Z,56.10
2019-04-23T06:33:27.302Z,56.60
2019-04-23T06:34:31.387Z,55.80
2019-04-23T06:35:43.825Z,55.70
2019-04-23T06:36:46.680Z,55.50
2019-04-23T06:38:28.093Z,55.60
2019-04-23T06:40:00.409Z,55.30
2019-04-23T06:41:11.722Z,55.20
2019-04-23T06:42:36.074Z,55.00
2019-04-23T06:43:24.088Z,54.60
2019-04-23T06:44:32.328Z,54.40
2019-04-23T06:45:37.445Z,54.40
2019-04-23T06:46:50.579Z,54.00
2019-04-23T06:47:54.171Z,53.70
2019-04-23T06:48:58.992Z,54.30
2019-04-23T06:49:58.195Z,55.00
2019-04-23T06:51:15.988Z,53.90
2019-04-23T06:53:19.728Z,53.30
2019-04-23T06:54:36.310Z,53.00
2019-04-23T06:55:35.765Z,53.10
2019-04-23T06:56:56.288Z,53.10
2019-04-23T06:57:48.170Z,52.70
2019-04-23T06:58:50.449Z,52.50
2019-04-23T06:59:59.269Z,52.90
2019-04-23T07:01:04.933Z,52.30
2019-04-23T07:02:11.825Z,52.30
2019-04-23T07:03:23.240Z,52.10
2019-04-23T07:04:30.028Z,51.90
2019-04-23T07:05:53.470Z,51.80
2019-04-23T07:07:19.520Z,51.70
2019-04-23T07:08:02.765Z,51.60
2019-04-23T07:09:13.139Z,51.80
2019-04-23T07:12:45.917Z,52.20
2019-04-23T07:13:40.182Z,52.20
2019-04-23T07:14:44.547Z,51.20
2019-04-23T07:15:58.570Z,51.10
2019-04-23T07:16:52.854Z,50.70
2019-04-23T07:17:54.319Z,50.60
2019-04-23T07:20:11.622Z,50.40
2019-04-23T07:21:18.326Z,50.50
2019-04-23T07:24:33.138Z,50.60
2019-04-23T07:25:40.373Z,50.30
2019-04-23T07:26:52.847Z,50.00
2019-04-23T07:27:47.392Z,50.00
2019-04-23T07:30:10.363Z,49.50
2019-04-23T07:31:19.163Z,49.20
2019-04-23T07:32:32.558Z,49.10
2019-04-23T07:33:27.915Z,49.20
2019-04-23T07:34:23.246Z,49.20
2019-04-23T07:35:30.505Z,49.30
2019-04-23T07:36:44.635Z,49.40
2019-04-23T07:37:57.187Z,49.40
2019-04-23T07:39:19.102Z,49.20
2019-04-23T07:41:54.916Z,48.90
2019-04-23T07:43:03.302Z,48.90
2019-04-23T07:44:46.660Z,48.60
2019-04-23T07:46:10.379Z,48.70
2019-04-23T07:47:43.560Z,48.60
2019-04-23T07:48:27.634Z,48.20
2019-04-23T07:49:56.550Z,48.30
2019-04-23T07:50:49.435Z,48.40
2019-04-23T07:52:01.267Z,48.20
2019-04-23T07:53:08.920Z,47.90
2019-04-23T07:54:09.530Z,47.90
2019-04-23T07:55:19.327Z,47.40
2019-04-23T07:56:27.916Z,47.30
2019-04-23T07:59:43.930Z,47.20
2019-04-23T08:00:45.579Z,46.60
2019-04-23T08:01:52.367Z,46.10
2019-04-23T08:02:58.324Z,46.10
2019-04-23T08:04:01.837Z,46.10
2019-04-23T08:05:15.667Z,45.90
2019-04-23T08:06:13.489Z,46.00
2019-04-23T08:07:21.271Z,45.90
2019-04-23T08:08:39.672Z,45.80
2019-04-23T08:09:43.424Z,45.70
2019-04-23T08:10:46.602Z,46.00
2019-04-23T08:12:02.897Z,45.80
2019-04-23T08:12:56.279Z,46.10
2019-04-23T08:13:56.976Z,45.40
2019-04-23T08:15:13.076Z,45.50
2019-04-23T08:16:25.993Z,45.70
2019-04-23T08:17:16.125Z,46.20
2019-04-23T08:18:27.633Z,45.60
2019-04-23T08:19:36.846Z,45.00
2019-04-23T08:20:35.310Z,44.90
2019-04-23T08:21:39.742Z,44.50
2019-04-23T08:22:48.037Z,44.60
2019-04-23T08:25:35.094Z,44.30
2019-04-23T08:26:59.671Z,44.80
2019-04-23T08:28:13.646Z,43.90
2019-04-23T08:29:27.638Z,43.90
2019-04-23T08:30:28.897Z,43.90
2019-04-23T08:31:40.291Z,43.80
2019-04-23T08:32:27.784Z,44.10
2019-04-23T08:33:49.979Z,44.10
2019-04-23T08:34:57.792Z,44.00
2019-04-23T08:35:58.882Z,43.90
2019-04-23T08:37:04.951Z,44.00
2019-04-23T08:39:18.270Z,43.00
2019-04-23T08:40:19.902Z,43.00
2019-04-23T08:41:36.019Z,42.90
2019-04-23T08:43:54.841Z,42.70
2019-04-23T08:48:20.637Z,42.70
2019-04-23T08:50:29.679Z,42.50
2019-04-23T08:51:57.058Z,42.50
2019-04-23T08:52:37.010Z,42.60
2019-04-23T08:53:42.423Z,42.70
2019-04-23T08:54:56.820Z,43.20
2019-04-23T08:56:12.023Z,42.70
2019-04-23T08:58:14.359Z,42.10
2019-04-23T08:59:25.389Z,41.90
2019-04-23T09:00:31.451Z,42.00
2019-04-23T09:01:48.009Z,42.00
2019-04-23T09:02:55.215Z,42.00
2019-04-23T09:03:55.959Z,41.90
2019-04-23T09:04:56.834Z,42.30
2019-04-23T09:07:04.485Z,41.90
2019-04-23T09:08:19.269Z,41.50
2019-04-23T09:09:12.733Z,41.30
2019-04-23T09:10:22.825Z,41.50
2019-04-23T09:11:41.659Z,41.30
2019-04-23T09:14:44.979Z,41.80
2019-04-23T09:15:51.779Z,41.30
2019-04-23T09:17:02.482Z,41.00
2019-04-23T09:18:04.260Z,41.30
2019-04-23T09:20:23.446Z,40.20
2019-04-23T09:21:22.130Z,40.70
2019-04-23T09:22:38.625Z,41.10
2019-04-23T09:23:45.136Z,40.80
2019-04-23T09:24:41.525Z,40.40
2019-04-23T09:25:47.760Z,40.00
2019-04-23T09:26:56.351Z,39.70
2019-04-23T09:28:16.113Z,39.80
2019-04-23T09:31:45.596Z,39.20
2019-04-23T09:32:40.200Z,38.90
2019-04-23T09:33:58.358Z,39.50
2019-04-23T09:35:26.029Z,39.20
2019-04-23T09:36:41.925Z,39.20
2019-04-23T09:38:07.073Z,39.10
2019-04-23T09:39:34.753Z,39.10
2019-04-23T09:41:15.172Z,39.10
2019-04-23T09:42:27.964Z,39.00
2019-04-23T09:43:38.570Z,39.20
2019-04-23T09:45:26.925Z,39.60
2019-04-23T09:46:23.481Z,39.70
2019-04-23T09:50:23.538Z,38.80
2019-04-23T09:51:32.776Z,39.50
2019-04-23T09:52:42.594Z,38.80
2019-04-23T09:53:33.822Z,39.10
2019-04-23T09:54:51.348Z,38.70
2019-04-23T09:56:01.173Z,38.00
2019-04-23T09:56:52.275Z,37.70
2019-04-23T09:59:15.686Z,37.70
2019-04-23T10:00:22.934Z,37.70
2019-04-23T10:02:28.234Z,37.10
2019-04-23T10:03:26.930Z,37.00
2019-04-23T10:04:31.935Z,37.20
2019-04-23T10:05:33.626Z,37.50
2019-04-23T10:06:36.210Z,37.80
2019-04-23T10:07:47.019Z,38.60
2019-04-23T10:08:50.006Z,38.10
2019-04-23T10:09:51.320Z,37.60
2019-04-23T10:10:57.386Z,37.60
2019-04-23T10:12:03.111Z,37.40
2019-04-23T10:13:08.342Z,37.50
2019-04-23T10:14:14.485Z,37.70
2019-04-23T10:15:25.015Z,37.00
2019-04-23T10:16:29.757Z,36.80
2019-04-23T10:17:31.927Z,36.90
2019-04-23T10:18:37.337Z,36.80
2019-04-23T10:19:42.714Z,36.70
2019-04-23T10:20:48.631Z,36.20
2019-04-23T10:21:53.418Z,35.90
2019-04-23T10:22:57.801Z,35.70
2019-04-23T10:24:03.375Z,35.40
2019-04-23T10:25:08.878Z,35.20
2019-04-23T10:26:14.235Z,35.50
2019-04-23T10:27:18.923Z,35.80
2019-04-23T10:28:31.658Z,36.10
2019-04-23T10:29:38.457Z,36.10
2019-04-23T10:30:42.978Z,36.10
2019-04-23T10:31:47.445Z,35.70
2019-04-23T10:32:51.806Z,35.10
2019-04-23T10:33:57.809Z,35.00
2019-04-23T10:35:14.653Z,35.10
2019-04-23T10:36:13.046Z,35.80
2019-04-23T10:37:15.562Z,35.90
2019-04-23T10:38:21.873Z,36.10
2019-04-23T10:39:31.758Z,35.60
2019-04-23T10:40:38.041Z,35.10
2019-04-23T10:41:40.542Z,35.70
2019-04-23T10:42:47.581Z,34.80
2019-04-23T10:43:56.706Z,34.80
2019-04-23T10:45:27.198Z,35.10
2019-04-23T10:46:53.696Z,35.30
2019-04-23T10:49:48.996Z,35.20
2019-04-23T10:50:51.366Z,34.60
2019-04-23T10:54:30.926Z,34.20
2019-04-23T10:55:27.163Z,34.20
2019-04-23T10:56:36.112Z,34.10
2019-04-23T10:57:32.579Z,33.80
2019-04-23T10:58:38.650Z,34.10
2019-04-23T10:59:49.046Z,33.40
2019-04-23T11:00:59.282Z,33.20
2019-04-23T11:02:23.959Z,33.00
2019-04-23T11:03:31.818Z,32.90
2019-04-23T11:04:34.245Z,33.00
2019-04-23T11:05:30.423Z,33.20
2019-04-23T11:06:45.292Z,33.00
2019-04-23T11:08:55.920Z,32.80
2019-04-23T11:10:03.311Z,33.00
2019-04-23T11:11:07.919Z,32.90
2019-04-23T11:12:37.118Z,32.90
2019-04-23T11:13:49.753Z,32.80
2019-04-23T11:14:41.941Z,32.60
2019-04-23T11:15:58.681Z,32.50
2019-04-23T11:16:57.225Z,32.80
2019-04-23T11:17:52.116Z,32.00
2019-04-23T11:19:07.790Z,31.80
2019-04-23T11:21:27.419Z,31.30
2019-04-23T11:22:42.563Z,30.50
2019-04-23T11:23:28.833Z,30.00
2019-04-23T11:24:44.156Z,29.50
2019-04-23T11:25:50.432Z,29.60
2019-04-23T11:27:07.873Z,28.60
2019-04-23T11:29:20.902Z,26.90
2019-04-23T11:30:25.879Z,26.30
2019-04-23T11:31:35.248Z,25.70
2019-04-23T11:32:46.762Z,25.40
2019-04-23T11:33:39.240Z,24.70
2019-04-23T11:35:08.757Z,24.20
2019-04-23T11:36:03.545Z,24.20
2019-04-23T11:38:23.640Z,23.10
2019-04-23T11:40:15.722Z,22.40
2019-04-23T11:41:26.347Z,22.60
2019-04-23T11:42:28.071Z,21.80
2019-04-23T11:43:32.776Z,21.60
2019-04-23T11:44:41.965Z,21.40
2019-04-23T11:45:54.041Z,21.60
2019-04-23T11:48:22.099Z,20.80
2019-04-23T11:49:34.641Z,20.40
2019-04-23T11:50:39.687Z,20.10
2019-04-23T11:52:32.832Z,19.30
2019-04-23T11:53:35.640Z,19.50
2019-04-23T11:55:44.824Z,19.20
2019-04-23T11:57:14.365Z,19.00
2019-04-23T11:58:16.985Z,19.10
2019-04-23T11:59:25.856Z,19.00
2019-04-23T12:00:06.123Z,18.90
2019-04-23T12:01:42.238Z,18.70
2019-04-23T12:03:07.442Z,18.60
2019-04-23T12:04:51.735Z,18.30
2019-04-23T12:08:57.343Z,17.50
2019-04-23T12:10:23.533Z,17.30
2019-04-23T12:11:54.541Z,17.20
2019-04-23T12:12:44.679Z,17.20
2019-04-23T12:17:04.163Z,16.50
2019-04-23T12:18:02.883Z,16.50
2019-04-23T12:19:35.660Z,16.40
2019-04-23T12:21:31.347Z,16.10
2019-04-23T12:22:29.814Z,16.10
2019-04-23T12:25:56.742Z,16.00
2019-04-23T12:27:56.439Z,15.40
2019-04-23T12:29:13.281Z,15.40
2019-04-23T12:30:20.336Z,15.50
2019-04-23T12:31:29.264Z,15.20
2019-04-23T12:33:36.106Z,15.70
2019-04-23T12:34:49.338Z,15.00
2019-04-23T12:35:38.987Z,14.80
2019-04-23T12:36:50.929Z,14.60
2019-04-23T12:38:00.725Z,14.20
2019-04-23T12:39:11.274Z,14.30
2019-04-23T12:41:21.132Z,14.30
2019-04-23T12:42:48.913Z,14.30
2019-04-23T12:43:50.333Z,14.10
2019-04-23T12:44:51.702Z,14.00
2019-04-23T12:45:42.499Z,14.00
2019-04-23T12:46:57.647Z,14.10
2019-04-23T12:49:27.687Z,14.10
2019-04-23T12:50:38.075Z,14.20
2019-04-23T12:51:26.366Z,14.30
2019-04-23T12:52:37.930Z,14.40
2019-04-23T12:53:38.276Z,14.50
2019-04-23T12:57:09.077Z,14.40
2019-04-23T12:57:57.551Z,13.80
2019-04-23T12:59:01.822Z,14.20
2019-04-23T13:00:18.720Z,14.50
2019-04-23T13:01:13.781Z,14.60
2019-04-23T13:02:33.426Z,14.30
2019-04-23T13:03:29.789Z,14.10
2019-04-23T13:04:41.593Z,14.10
2019-04-23T13:05:34.117Z,14.10
2019-04-23T13:06:44.212Z,13.90
2019-04-23T13:07:52.075Z,13.90
2019-04-23T13:09:02.803Z,13.90
2019-04-23T13:10:21.070Z,14.50
2019-04-23T13:11:14.142Z,14.00
2019-04-23T13:12:33.061Z,14.10
2019-04-23T13:14:39.519Z,13.80
2019-04-23T13:15:34.285Z,13.60
2019-04-23T13:16:54.062Z,13.40
2019-04-23T13:20:01.426Z,13.80
2019-04-23T13:21:36.342Z,13.80
2019-04-23T13:22:21.425Z,13.90
2019-04-23T13:23:22.150Z,13.80
2019-04-23T13:24:48.759Z,13.60
2019-04-23T13:27:12.021Z,13.40
2019-04-23T13:28:14.087Z,13.50
2019-04-23T13:29:32.933Z,13.40
2019-04-23T13:30:31.613Z,13.20
2019-04-23T13:31:30.127Z,13.90
2019-04-23T13:32:38.991Z,13.50
2019-04-23T13:33:43.871Z,13.60
2019-04-23T13:34:58.844Z,13.60
2019-04-23T13:36:01.064Z,13.90
2019-04-23T13:36:59.764Z,14.10
2019-04-23T13:38:38.885Z,13.50
2019-04-23T13:39:18.469Z,13.80
2019-04-23T13:40:24.728Z,13.90
2019-04-23T13:42:40.340Z,13.80
2019-04-23T13:43:40.465Z,13.90
2019-04-23T13:44:46.731Z,13.80
2019-04-23T13:46:59.988Z,13.60
2019-04-23T13:49:07.952Z,13.50
2019-04-23T13:51:25.709Z,13.90
2019-04-23T13:52:59.844Z,13.90
2019-04-23T13:55:42.869Z,14.00
2019-04-23T13:57:23.915Z,14.10
2019-04-23T13:58:07.222Z,14.20
2019-04-23T13:59:15.649Z,14.20
2019-04-23T14:00:20.593Z,14.40
2019-04-23T14:01:26.243Z,14.40
2019-04-23T14:07:28.012Z,14.40
2019-04-23T14:08:33.530Z,14.30
2019-04-23T14:09:41.322Z,14.20
2019-04-23T14:10:39.717Z,14.30
2019-04-23T14:11:51.523Z,14.50
2019-04-23T14:13:10.796Z,14.60
2019-04-23T14:13:56.713Z,14.60
2019-04-23T14:15:04.890Z,15.10
2019-04-23T14:16:13.790Z,14.40
2019-04-23T14:18:43.328Z,14.40
2019-04-23T14:19:22.578Z,14.20
2019-04-23T14:20:34.803Z,14.40
2019-04-23T14:21:44.525Z,14.50
2019-04-23T14:23:00.009Z,14.60
2019-04-23T14:24:08.256Z,14.60
2019-04-23T14:25:08.073Z,14.70
2019-04-23T14:26:20.748Z,14.50
2019-04-23T14:27:14.343Z,14.80
2019-04-23T14:28:21.701Z,14.40
2019-04-23T14:29:32.458Z,14.50
2019-04-23T14:31:38.884Z,14.70
2019-04-23T14:32:45.741Z,14.90
2019-04-23T14:34:01.343Z,14.80
2019-04-23T14:35:08.544Z,14.90
2019-04-23T14:36:05.770Z,14.90
2019-04-23T14:38:23.452Z,15.20
2019-04-23T14:39:27.409Z,15.30
2019-04-23T14:41:36.301Z,15.50
2019-04-23T14:42:44.907Z,15.50
2019-04-23T14:43:48.710Z,15.50
2019-04-23T14:45:08.202Z,16.10
2019-04-23T14:47:24.059Z,15.70
2019-04-23T14:50:46.924Z,15.70
2019-04-23T14:51:51.593Z,15.70
2019-04-23T14:53:08.159Z,15.80
2019-04-23T14:54:22.941Z,15.90
2019-04-23T14:55:40.196Z,16.00
2019-04-23T14:57:35.179Z,16.00
2019-04-23T14:58:31.464Z,16.00
2019-04-23T14:59:29.015Z,16.00
2019-04-23T15:01:49.770Z,16.20
2019-04-23T15:03:02.989Z,16.40
2019-04-23T15:04:10.895Z,16.40
2019-04-23T15:05:13.164Z,16.40
2019-04-23T15:07:22.333Z,16.30
2019-04-23T15:08:32.852Z,16.30
2019-04-23T15:09:36.133Z,16.40
2019-04-23T15:10:41.706Z,16.40
2019-04-23T15:12:50.574Z,16.30
2019-04-23T15:13:53.863Z,16.40
2019-04-23T15:15:10.022Z,16.70
2019-04-23T15:17:17.803Z,16.70
2019-04-23T15:18:35.257Z,16.70
2019-04-23T15:19:58.069Z,17.00
2019-04-23T15:21:28.330Z,16.90
2019-04-23T15:22:16.610Z,17.10
2019-04-23T15:23:33.350Z,17.30
2019-04-23T15:25:53.145Z,17.50
2019-04-23T15:28:30.208Z,17.70
2019-04-23T15:29:48.451Z,17.00
2019-04-23T15:31:17.931Z,16.90
2019-04-23T15:32:09.947Z,16.70
2019-04-23T15:33:27.997Z,16.50
2019-04-23T15:34:30.971Z,16.50
2019-04-23T15:37:58.279Z,16.80
2019-04-23T15:39:04.127Z,16.60
2019-04-23T15:40:05.806Z,16.60
2019-04-23T15:41:07.412Z,16.50
2019-04-23T15:42:10.878Z,16.50
2019-04-23T15:45:28.892Z,16.50
2019-04-23T15:46:39.305Z,16.70
2019-04-23T15:47:45.323Z,17.10
2019-04-23T15:48:57.664Z,17.60
2019-04-23T15:51:04.145Z,19.60
2019-04-23T15:52:07.345Z,20.20
2019-04-23T15:53:05.942Z,21.10
2019-04-23T15:54:35.394Z,20.70
2019-04-23T15:55:22.487Z,20.90
2019-04-23T15:56:35.910Z,21.10
2019-04-23T15:57:54.123Z,21.50
2019-04-23T15:59:00.176Z,22.00
2019-04-23T16:00:02.275Z,22.90
2019-04-23T16:01:15.352Z,23.10
2019-04-23T16:01:51.048Z,23.70
2019-04-23T16:02:55.375Z,24.60
2019-04-23T16:04:01.231Z,25.70
2019-04-23T16:05:08.540Z,25.80
2019-04-23T16:06:16.545Z,26.20
2019-04-23T16:07:39.091Z,26.70
2019-04-23T16:09:05.372Z,27.00
2019-04-23T16:10:04.242Z,27.40
2019-04-23T16:11:17.153Z,27.70
2019-04-23T16:12:04.694Z,27.90
2019-04-23T16:13:37.403Z,28.20
2019-04-23T16:15:30.927Z,28.70
2019-04-23T16:16:39.801Z,28.90
2019-04-23T16:17:41.998Z,29.10
2019-04-23T16:18:58.968Z,29.30
2019-04-23T16:21:26.574Z,29.70
2019-04-23T16:22:18.547Z,30.00
2019-04-23T16:23:28.035Z,30.10
2019-04-23T16:24:26.569Z,30.80
2019-04-23T16:25:38.703Z,30.50
2019-04-23T16:26:55.822Z,30.70
2019-04-23T16:27:49.153Z,31.20
2019-04-23T16:29:19.048Z,30.50
2019-04-23T16:31:20.978Z,30.70
2019-04-23T16:32:22.861Z,30.90
2019-04-23T16:33:16.554Z,30.90
2019-04-23T16:35:15.632Z,31.70
2019-04-23T16:36:12.703Z,31.10
2019-04-23T16:37:16.954Z,31.30
2019-04-23T16:38:34.270Z,31.50
2019-04-23T16:39:22.062Z,31.50
2019-04-23T16:41:39.966Z,32.30
2019-04-23T16:42:49.372Z,31.80
2019-04-23T16:45:07.494Z,31.90
2019-04-23T16:46:07.220Z,31.90
2019-04-23T16:47:26.472Z,31.90
2019-04-23T16:48:26.258Z,31.80
2019-04-23T16:52:46.300Z,31.90
2019-04-23T16:53:47.044Z,31.90
2019-04-23T16:54:54.941Z,32.10
2019-04-23T16:56:04.771Z,31.90
2019-04-23T16:58:22.612Z,31.90
2019-04-23T17:01:24.979Z,31.70
2019-04-23T17:02:34.134Z,31.00
2019-04-23T17:04:53.030Z,31.90
2019-04-23T17:05:57.827Z,31.70
2019-04-23T17:07:08.421Z,31.20
2019-04-23T17:08:32.594Z,30.60
2019-04-23T17:09:09.470Z,30.00
2019-04-23T17:10:19.206Z,29.70
2019-04-23T17:12:25.108Z,29.60
2019-04-23T17:13:37.599Z,29.70
2019-04-23T17:14:41.574Z,29.90
2019-04-23T17:16:49.388Z,30.20
2019-04-23T17:18:03.503Z,30.40
2019-04-23T17:19:10.405Z,30.70
2019-04-23T17:20:19.768Z,30.90
2019-04-23T17:21:16.836Z,31.40
2019-04-23T17:22:24.901Z,31.50
2019-04-23T17:23:39.690Z,31.90
2019-04-23T17:24:46.052Z,32.10
2019-04-23T17:25:41.761Z,32.30
2019-04-23T17:27:09.302Z,32.70
2019-04-23T17:28:03.593Z,32.90
2019-04-23T17:29:09.800Z,33.00
2019-04-23T17:30:11.998Z,33.30
2019-04-23T17:32:38.579Z,33.90
2019-04-23T17:33:49.674Z,34.20
2019-04-23T17:35:19.197Z,34.50
2019-04-23T17:36:49.541Z,34.70
2019-04-23T17:38:00.734Z,35.20
2019-04-23T17:39:07.810Z,35.50
2019-04-23T17:40:17.727Z,35.70
2019-04-23T17:43:20.658Z,36.10
2019-04-23T17:45:30.777Z,36.50
2019-04-23T17:46:32.334Z,36.80
2019-04-23T17:47:35.502Z,37.00
2019-04-23T17:48:48.020Z,37.30
2019-04-23T17:51:07.970Z,37.50
2019-04-23T17:53:17.819Z,37.80
2019-04-23T17:54:17.887Z,38.00
2019-04-23T17:55:22.276Z,38.20
2019-04-23T17:56:39.313Z,38.40
2019-04-23T17:57:36.834Z,38.50
2019-04-23T17:58:40.890Z,38.70
2019-04-23T18:00:08.450Z,39.50
2019-04-23T18:03:40.012Z,39.70
2019-04-23T18:04:43.710Z,39.70
2019-04-23T18:05:51.463Z,39.80
2019-04-23T18:06:55.802Z,40.00
2019-04-23T18:07:59.395Z,40.10
2019-04-23T18:10:24.961Z,40.40
2019-04-23T18:11:27.896Z,40.60